sensor_id;sensor_type;location;lat;lon;timestamp;temperature;humidity
50570;DHT22;36525;49.398;7.614;2022-07-23T00:01:15;20.30;99.90
50570;DHT22;36525;49.398;7.614;2022-07-23T00:04:04;20.20;99.90
50570;DHT22;36525;49.398;7.614;2022-07-23T00:06:40;20.20;99.90
50570;DHT22;36525;49.398;7.614;2022-07-23T00:12:12;20.20;99.90
50570;DHT22;36525;49.398;7.614;2022-07-23T00:14:57;20.20;99.90
50570;DHT22;36525;49.398;7.614;2022-07-23T00:21:44;20.30;99.90
50570;DHT22;36525;49.398;7.614;2022-07-23T00:24:17;20.40;99.90
50570;DHT22;36525;49.398;7.614;2022-07-23T00:26:58;20.30;99.90
50570;DHT22;36525;49.398;7.614;2022-07-23T00:29:36;20.10;99.90
50570;DHT22;36525;49.398;7.614;2022-07-23T00:32:10;20.00;99.90
50570;DHT22;36525;49.398;7.614;2022-07-23T00:35:27;20.00;99.90
50570;DHT22;36525;49.398;7.614;2022-07-23T00:41:49;20.00;99.90
50570;DHT22;36525;49.398;7.614;2022-07-23T00:44:29;19.90;99.90
50570;DHT22;36525;49.398;7.614;2022-07-23T00:47:19;19.90;99.90
50570;DHT22;36525;49.398;7.614;2022-07-23T00:53:23;19.80;99.90
50570;DHT22;36525;49.398;7.614;2022-07-23T00:55:50;19.80;99.90
50570;DHT22;36525;49.398;7.614;2022-07-23T00:58:23;20.00;99.90
50570;DHT22;36525;49.398;7.614;2022-07-23T01:00:56;19.90;99.90
50570;DHT22;36525;49.398;7.614;2022-07-23T01:03:35;19.80;99.90
50570;DHT22;36525;49.398;7.614;2022-07-23T01:10:17;19.90;99.90
50570;DHT22;36525;49.398;7.614;2022-07-23T01:12:24;20.00;99.90
50570;DHT22;36525;49.398;7.614;2022-07-23T01:15:06;20.10;99.90
50570;DHT22;36525;49.398;7.614;2022-07-23T01:22:02;20.30;99.90
50570;DHT22;36525;49.398;7.614;2022-07-23T01:24:31;20.30;99.90
50570;DHT22;36525;49.398;7.614;2022-07-23T01:27:06;20.30;99.90
50570;DHT22;36525;49.398;7.614;2022-07-23T01:29:47;20.30;99.90
50570;DHT22;36525;49.398;7.614;2022-07-23T01:32:20;20.20;99.90
50570;DHT22;36525;49.398;7.614;2022-07-23T01:35:02;20.20;99.90
50570;DHT22;36525;49.398;7.614;2022-07-23T01:37:29;20.10;99.90
50570;DHT22;36525;49.398;7.614;2022-07-23T01:40:15;20.00;99.90
50570;DHT22;36525;49.398;7.614;2022-07-23T01:42:56;19.90;99.90
50570;DHT22;36525;49.398;7.614;2022-07-23T01:45:41;19.90;99.90
50570;DHT22;36525;49.398;7.614;2022-07-23T01:48:25;20.00;99.90
50570;DHT22;36525;49.398;7.614;2022-07-23T01:58:10;19.90;99.90
50570;DHT22;36525;49.398;7.614;2022-07-23T02:00:46;19.90;99.90
50570;DHT22;36525;49.398;7.614;2022-07-23T02:03:44;19.90;99.90
50570;DHT22;36525;49.398;7.614;2022-07-23T02:06:23;19.90;99.90
50570;DHT22;36525;49.398;7.614;2022-07-23T02:12:20;19.80;99.90
50570;DHT22;36525;49.398;7.614;2022-07-23T02:15:03;19.70;99.90
50570;DHT22;36525;49.398;7.614;2022-07-23T02:17:31;19.50;99.90
50570;DHT22;36525;49.398;7.614;2022-07-23T02:20:23;19.50;99.90
50570;DHT22;36525;49.398;7.614;2022-07-23T02:27:18;19.40;99.90
50570;DHT22;36525;49.398;7.614;2022-07-23T02:29:51;19.30;99.90
50570;DHT22;36525;49.398;7.614;2022-07-23T02:32:24;19.30;99.90
50570;DHT22;36525;49.398;7.614;2022-07-23T02:35:00;19.50;99.90
50570;DHT22;36525;49.398;7.614;2022-07-23T02:37:28;19.60;99.90
50570;DHT22;36525;49.398;7.614;2022-07-23T02:40:09;19.70;99.90
50570;DHT22;36525;49.398;7.614;2022-07-23T02:43:09;19.70;99.90
50570;DHT22;36525;49.398;7.614;2022-07-23T02:46:10;19.80;99.90
50570;DHT22;36525;49.398;7.614;2022-07-23T02:49:08;19.90;99.90
50570;DHT22;36525;49.398;7.614;2022-07-23T02:52:13;19.80;99.90
50570;DHT22;36525;49.398;7.614;2022-07-23T02:55:10;19.70;99.90
50570;DHT22;36525;49.398;7.614;2022-07-23T02:57:38;19.60;99.90
50570;DHT22;36525;49.398;7.614;2022-07-23T03:00:05;19.50;99.90
50570;DHT22;36525;49.398;7.614;2022-07-23T03:03:25;19.40;99.90
50570;DHT22;36525;49.398;7.614;2022-07-23T03:05:56;19.20;99.90
50570;DHT22;36525;49.398;7.614;2022-07-23T03:08:23;19.20;99.90
50570;DHT22;36525;49.398;7.614;2022-07-23T03:10:50;19.10;99.90
50570;DHT22;36525;49.398;7.614;2022-07-23T03:13:39;19.00;99.90
50570;DHT22;36525;49.398;7.614;2022-07-23T03:16:07;19.10;99.90
50570;DHT22;36525;49.398;7.614;2022-07-23T03:18:43;19.00;99.90
50570;DHT22;36525;49.398;7.614;2022-07-23T03:21:16;19.10;99.90
50570;DHT22;36525;49.398;7.614;2022-07-23T03:24:10;19.00;99.90
50570;DHT22;36525;49.398;7.614;2022-07-23T03:26:40;19.00;99.90
50570;DHT22;36525;49.398;7.614;2022-07-23T03:29:19;19.10;99.90
50570;DHT22;36525;49.398;7.614;2022-07-23T03:31:46;19.10;99.90
50570;DHT22;36525;49.398;7.614;2022-07-23T03:34:13;19.10;99.90
50570;DHT22;36525;49.398;7.614;2022-07-23T03:37:12;19.00;99.90
50570;DHT22;36525;49.398;7.614;2022-07-23T03:39:42;19.00;99.90
50570;DHT22;36525;49.398;7.614;2022-07-23T03:42:12;19.10;99.90
50570;DHT22;36525;49.398;7.614;2022-07-23T03:44:51;19.20;99.90
50570;DHT22;36525;49.398;7.614;2022-07-23T03:50:58;19.10;99.90
50570;DHT22;36525;49.398;7.614;2022-07-23T03:53:53;19.00;99.90
50570;DHT22;36525;49.398;7.614;2022-07-23T03:56:57;18.90;99.90
50570;DHT22;36525;49.398;7.614;2022-07-23T03:59:48;18.90;99.90
50570;DHT22;36525;49.398;7.614;2022-07-23T04:02:37;19.00;99.90
50570;DHT22;36525;49.398;7.614;2022-07-23T04:05:38;19.00;99.90
50570;DHT22;36525;49.398;7.614;2022-07-23T04:08:14;19.00;99.90
50570;DHT22;36525;49.398;7.614;2022-07-23T04:10:44;18.90;99.90
50570;DHT22;36525;49.398;7.614;2022-07-23T04:13:14;18.90;99.90
50570;DHT22;36525;49.398;7.614;2022-07-23T04:15:41;19.00;99.90
50570;DHT22;36525;49.398;7.614;2022-07-23T04:18:11;19.00;99.90
50570;DHT22;36525;49.398;7.614;2022-07-23T04:20:38;19.00;99.90
50570;DHT22;36525;49.398;7.614;2022-07-23T04:23:37;19.10;99.90
50570;DHT22;36525;49.398;7.614;2022-07-23T04:26:04;19.10;99.90
50570;DHT22;36525;49.398;7.614;2022-07-23T04:28:49;19.20;99.90
50570;DHT22;36525;49.398;7.614;2022-07-23T04:31:22;19.20;99.90
50570;DHT22;36525;49.398;7.614;2022-07-23T04:33:59;19.10;99.90
50570;DHT22;36525;49.398;7.614;2022-07-23T04:37:06;19.20;99.90
50570;DHT22;36525;49.398;7.614;2022-07-23T04:39:36;19.10;99.90
50570;DHT22;36525;49.398;7.614;2022-07-23T04:42:31;19.10;99.90
50570;DHT22;36525;49.398;7.614;2022-07-23T04:44:58;19.10;99.90
50570;DHT22;36525;49.398;7.614;2022-07-23T04:47:49;19.20;99.90
50570;DHT22;36525;49.398;7.614;2022-07-23T04:50:25;19.20;99.90
50570;DHT22;36525;49.398;7.614;2022-07-23T04:56:28;19.30;99.90
50570;DHT22;36525;49.398;7.614;2022-07-23T04:58:58;19.30;99.90
50570;DHT22;36525;49.398;7.614;2022-07-23T05:01:25;19.30;99.90
50570;DHT22;36525;49.398;7.614;2022-07-23T05:07:12;19.30;99.90
50570;DHT22;36525;49.398;7.614;2022-07-23T05:09:45;19.30;99.90
50570;DHT22;36525;49.398;7.614;2022-07-23T05:12:24;19.40;99.90
50570;DHT22;36525;49.398;7.614;2022-07-23T05:15:03;19.40;99.90
50570;DHT22;36525;49.398;7.614;2022-07-23T05:17:58;19.50;99.90
50570;DHT22;36525;49.398;7.614;2022-07-23T05:20:37;19.60;99.90
50570;DHT22;36525;49.398;7.614;2022-07-23T05:26:27;19.70;99.90
50570;DHT22;36525;49.398;7.614;2022-07-23T05:28:55;19.70;99.90
50570;DHT22;36525;49.398;7.614;2022-07-23T05:35:44;20.00;99.90
50570;DHT22;36525;49.398;7.614;2022-07-23T05:38:24;20.10;99.90
50570;DHT22;36525;49.398;7.614;2022-07-23T05:40:54;20.20;99.90
50570;DHT22;36525;49.398;7.614;2022-07-23T05:43:30;20.30;99.90
50570;DHT22;36525;49.398;7.614;2022-07-23T05:46:09;20.30;99.90
50570;DHT22;36525;49.398;7.614;2022-07-23T05:52:25;20.20;99.90
50570;DHT22;36525;49.398;7.614;2022-07-23T05:54:55;20.10;99.90
50570;DHT22;36525;49.398;7.614;2022-07-23T05:57:41;20.20;99.90
50570;DHT22;36525;49.398;7.614;2022-07-23T06:04:23;20.20;99.90
50570;DHT22;36525;49.398;7.614;2022-07-23T06:06:59;20.30;99.90
50570;DHT22;36525;49.398;7.614;2022-07-23T06:09:26;20.30;99.90
50570;DHT22;36525;49.398;7.614;2022-07-23T06:12:25;20.30;99.90
50570;DHT22;36525;49.398;7.614;2022-07-23T06:18:19;20.30;99.90
50570;DHT22;36525;49.398;7.614;2022-07-23T06:21:07;20.20;99.90
50570;DHT22;36525;49.398;7.614;2022-07-23T06:24:15;20.40;99.90
50570;DHT22;36525;49.398;7.614;2022-07-23T06:26:45;20.50;99.90
50570;DHT22;36525;49.398;7.614;2022-07-23T06:29:19;20.70;99.90
50570;DHT22;36525;49.398;7.614;2022-07-23T06:31:46;20.80;99.90
50570;DHT22;36525;49.398;7.614;2022-07-23T06:34:13;20.80;99.90
50570;DHT22;36525;49.398;7.614;2022-07-23T06:36:49;20.70;99.90
50570;DHT22;36525;49.398;7.614;2022-07-23T06:39:45;20.70;99.90
50570;DHT22;36525;49.398;7.614;2022-07-23T06:46:19;21.20;99.90
50570;DHT22;36525;49.398;7.614;2022-07-23T06:48:47;21.50;99.90
50570;DHT22;36525;49.398;7.614;2022-07-23T06:51:14;21.70;99.90
50570;DHT22;36525;49.398;7.614;2022-07-23T06:53:41;21.80;99.90
50570;DHT22;36525;49.398;7.614;2022-07-23T06:56:09;22.10;99.90
50570;DHT22;36525;49.398;7.614;2022-07-23T06:58:36;22.20;99.90
50570;DHT22;36525;49.398;7.614;2022-07-23T07:01:02;22.10;99.90
50570;DHT22;36525;49.398;7.614;2022-07-23T07:03:30;22.10;99.90
50570;DHT22;36525;49.398;7.614;2022-07-23T07:05:57;22.00;99.90
50570;DHT22;36525;49.398;7.614;2022-07-23T07:08:24;22.00;99.90
50570;DHT22;36525;49.398;7.614;2022-07-23T07:10:51;22.10;99.90
50570;DHT22;36525;49.398;7.614;2022-07-23T07:13:18;22.20;99.90
50570;DHT22;36525;49.398;7.614;2022-07-23T07:15:45;22.30;99.90
50570;DHT22;36525;49.398;7.614;2022-07-23T07:18:12;22.30;99.90
50570;DHT22;36525;49.398;7.614;2022-07-23T07:20:39;22.40;99.90
50570;DHT22;36525;49.398;7.614;2022-07-23T07:23:06;22.60;99.90
50570;DHT22;36525;49.398;7.614;2022-07-23T07:25:33;22.70;99.90
50570;DHT22;36525;49.398;7.614;2022-07-23T07:28:00;22.90;99.90
50570;DHT22;36525;49.398;7.614;2022-07-23T07:30:27;23.10;99.90
50570;DHT22;36525;49.398;7.614;2022-07-23T07:32:59;23.20;99.90
50570;DHT22;36525;49.398;7.614;2022-07-23T07:35:27;23.40;99.90
50570;DHT22;36525;49.398;7.614;2022-07-23T07:37:56;23.30;99.90
50570;DHT22;36525;49.398;7.614;2022-07-23T07:40:24;23.50;99.90
50570;DHT22;36525;49.398;7.614;2022-07-23T07:42:59;23.60;99.90
50570;DHT22;36525;49.398;7.614;2022-07-23T07:45:26;23.60;99.90
50570;DHT22;36525;49.398;7.614;2022-07-23T07:47:53;23.70;99.90
50570;DHT22;36525;49.398;7.614;2022-07-23T07:50:21;24.00;99.90
50570;DHT22;36525;49.398;7.614;2022-07-23T07:52:48;24.00;99.90
50570;DHT22;36525;49.398;7.614;2022-07-23T07:55:15;24.10;99.90
50570;DHT22;36525;49.398;7.614;2022-07-23T07:57:43;24.10;99.90
50570;DHT22;36525;49.398;7.614;2022-07-23T08:00:30;24.20;99.90
50570;DHT22;36525;49.398;7.614;2022-07-23T08:02:58;24.50;99.90
50570;DHT22;36525;49.398;7.614;2022-07-23T08:05:28;24.40;99.90
50570;DHT22;36525;49.398;7.614;2022-07-23T08:07:57;24.30;99.90
50570;DHT22;36525;49.398;7.614;2022-07-23T08:10:26;24.50;99.90
50570;DHT22;36525;49.398;7.614;2022-07-23T08:12:55;24.80;99.90
50570;DHT22;36525;49.398;7.614;2022-07-23T08:15:27;24.80;99.90
50570;DHT22;36525;49.398;7.614;2022-07-23T08:17:55;24.70;99.90
50570;DHT22;36525;49.398;7.614;2022-07-23T08:20:23;24.70;99.90
50570;DHT22;36525;49.398;7.614;2022-07-23T08:22:52;24.70;99.90
50570;DHT22;36525;49.398;7.614;2022-07-23T08:25:25;24.80;99.90
50570;DHT22;36525;49.398;7.614;2022-07-23T08:27:55;24.90;99.90
50570;DHT22;36525;49.398;7.614;2022-07-23T08:30:22;25.00;99.90
50570;DHT22;36525;49.398;7.614;2022-07-23T08:32:55;25.10;99.90
50570;DHT22;36525;49.398;7.614;2022-07-23T08:35:34;25.10;99.90
50570;DHT22;36525;49.398;7.614;2022-07-23T08:38:06;25.10;99.90
50570;DHT22;36525;49.398;7.614;2022-07-23T08:40:37;25.40;99.90
50570;DHT22;36525;49.398;7.614;2022-07-23T08:43:12;25.60;99.90
50570;DHT22;36525;49.398;7.614;2022-07-23T08:45:43;25.80;99.90
50570;DHT22;36525;49.398;7.614;2022-07-23T08:48:13;25.90;99.90
50570;DHT22;36525;49.398;7.614;2022-07-23T08:50:45;26.00;99.90
50570;DHT22;36525;49.398;7.614;2022-07-23T08:53:15;26.20;99.90
50570;DHT22;36525;49.398;7.614;2022-07-23T08:55:47;26.40;99.90
50570;DHT22;36525;49.398;7.614;2022-07-23T08:58:18;26.30;99.90
50570;DHT22;36525;49.398;7.614;2022-07-23T09:00:53;26.40;99.90
50570;DHT22;36525;49.398;7.614;2022-07-23T09:03:23;26.60;99.90
50570;DHT22;36525;49.398;7.614;2022-07-23T09:05:52;26.90;99.90
50570;DHT22;36525;49.398;7.614;2022-07-23T09:08:21;27.10;99.90
50570;DHT22;36525;49.398;7.614;2022-07-23T09:10:57;27.00;99.90
50570;DHT22;36525;49.398;7.614;2022-07-23T09:16:14;27.80;99.90
50570;DHT22;36525;49.398;7.614;2022-07-23T09:18:59;28.00;99.90
50570;DHT22;36525;49.398;7.614;2022-07-23T09:21:38;28.30;99.90
50570;DHT22;36525;49.398;7.614;2022-07-23T09:24:13;28.30;99.90
50570;DHT22;36525;49.398;7.614;2022-07-23T09:26:48;27.70;99.90
50570;DHT22;36525;49.398;7.614;2022-07-23T09:29:20;27.20;99.90
50570;DHT22;36525;49.398;7.614;2022-07-23T09:32:03;26.80;99.90
50570;DHT22;36525;49.398;7.614;2022-07-23T09:34:36;26.70;99.90
50570;DHT22;36525;49.398;7.614;2022-07-23T09:37:17;26.90;99.90
50570;DHT22;36525;49.398;7.614;2022-07-23T09:39:46;27.30;99.90
50570;DHT22;36525;49.398;7.614;2022-07-23T09:42:24;27.60;99.90
50570;DHT22;36525;49.398;7.614;2022-07-23T09:44:54;27.80;99.90
50570;DHT22;36525;49.398;7.614;2022-07-23T09:47:24;28.00;99.90
50570;DHT22;36525;49.398;7.614;2022-07-23T09:52:42;28.20;99.90
50570;DHT22;36525;49.398;7.614;2022-07-23T09:55:11;28.40;99.90
50570;DHT22;36525;49.398;7.614;2022-07-23T09:57:40;28.50;99.90
50570;DHT22;36525;49.398;7.614;2022-07-23T10:00:09;28.60;99.90
50570;DHT22;36525;49.398;7.614;2022-07-23T10:02:38;29.00;99.90
50570;DHT22;36525;49.398;7.614;2022-07-23T10:05:06;29.10;99.90
50570;DHT22;36525;49.398;7.614;2022-07-23T10:07:37;29.10;99.90
50570;DHT22;36525;49.398;7.614;2022-07-23T10:10:05;29.10;99.90
50570;DHT22;36525;49.398;7.614;2022-07-23T10:12:33;29.50;99.90
50570;DHT22;36525;49.398;7.614;2022-07-23T10:15:18;29.90;99.90
50570;DHT22;36525;49.398;7.614;2022-07-23T10:17:45;29.60;99.90
50570;DHT22;36525;49.398;7.614;2022-07-23T10:20:13;29.40;99.90
50570;DHT22;36525;49.398;7.614;2022-07-23T10:22:47;28.90;99.90
50570;DHT22;36525;49.398;7.614;2022-07-23T10:29:27;28.20;99.90
50570;DHT22;36525;49.398;7.614;2022-07-23T10:32:02;28.20;99.90
50570;DHT22;36525;49.398;7.614;2022-07-23T10:34:52;28.70;99.90
50570;DHT22;36525;49.398;7.614;2022-07-23T10:37:35;29.50;99.90
50570;DHT22;36525;49.398;7.614;2022-07-23T10:42:39;30.40;99.20
50570;DHT22;36525;49.398;7.614;2022-07-23T10:48:15;30.80;98.10
50570;DHT22;36525;49.398;7.614;2022-07-23T10:50:43;30.20;98.00
50570;DHT22;36525;49.398;7.614;2022-07-23T10:53:17;29.90;99.10
50570;DHT22;36525;49.398;7.614;2022-07-23T10:55:50;29.70;98.90
50570;DHT22;36525;49.398;7.614;2022-07-23T10:58:20;29.70;99.30
50570;DHT22;36525;49.398;7.614;2022-07-23T11:00:49;29.80;99.00
50570;DHT22;36525;49.398;7.614;2022-07-23T11:03:44;29.90;98.00
50570;DHT22;36525;49.398;7.614;2022-07-23T11:06:23;29.60;97.60
50570;DHT22;36525;49.398;7.614;2022-07-23T11:09:23;29.60;98.00
50570;DHT22;36525;49.398;7.614;2022-07-23T11:15:13;30.10;97.60
50570;DHT22;36525;49.398;7.614;2022-07-23T11:20:16;30.90;97.70
50570;DHT22;36525;49.398;7.614;2022-07-23T11:22:46;30.80;97.10
50570;DHT22;36525;49.398;7.614;2022-07-23T11:27:50;31.40;96.00
50570;DHT22;36525;49.398;7.614;2022-07-23T11:35:43;30.90;95.30
50570;DHT22;36525;49.398;7.614;2022-07-23T11:38:22;30.30;95.50
50570;DHT22;36525;49.398;7.614;2022-07-23T11:40:54;29.80;96.00
50570;DHT22;36525;49.398;7.614;2022-07-23T11:43:24;29.40;96.10
50570;DHT22;36525;49.398;7.614;2022-07-23T11:45:54;29.60;96.40
50570;DHT22;36525;49.398;7.614;2022-07-23T11:48:27;29.70;95.70
50570;DHT22;36525;49.398;7.614;2022-07-23T11:50:57;30.00;96.10
50570;DHT22;36525;49.398;7.614;2022-07-23T11:53:33;29.90;96.00
50570;DHT22;36525;49.398;7.614;2022-07-23T11:56:08;29.70;96.40
50570;DHT22;36525;49.398;7.614;2022-07-23T11:58:37;29.70;96.30
50570;DHT22;36525;49.398;7.614;2022-07-23T12:01:05;29.60;96.00
50570;DHT22;36525;49.398;7.614;2022-07-23T12:03:32;29.50;95.60
50570;DHT22;36525;49.398;7.614;2022-07-23T12:06:00;29.30;96.80
50570;DHT22;36525;49.398;7.614;2022-07-23T12:08:27;29.30;96.90
50570;DHT22;36525;49.398;7.614;2022-07-23T12:10:54;29.40;96.60
50570;DHT22;36525;49.398;7.614;2022-07-23T12:13:21;29.20;96.40
50570;DHT22;36525;49.398;7.614;2022-07-23T12:15:52;29.20;96.50
50570;DHT22;36525;49.398;7.614;2022-07-23T12:18:22;29.20;96.50
50570;DHT22;36525;49.398;7.614;2022-07-23T12:20:57;29.20;96.20
50570;DHT22;36525;49.398;7.614;2022-07-23T12:23:28;29.00;96.40
50570;DHT22;36525;49.398;7.614;2022-07-23T12:26:03;28.90;96.90
50570;DHT22;36525;49.398;7.614;2022-07-23T12:28:32;28.70;96.90
50570;DHT22;36525;49.398;7.614;2022-07-23T12:31:00;28.50;97.40
50570;DHT22;36525;49.398;7.614;2022-07-23T12:33:34;28.70;98.10
50570;DHT22;36525;49.398;7.614;2022-07-23T12:36:07;29.30;97.40
50570;DHT22;36525;49.398;7.614;2022-07-23T12:38:47;29.70;96.10
50570;DHT22;36525;49.398;7.614;2022-07-23T12:41:17;29.70;96.40
50570;DHT22;36525;49.398;7.614;2022-07-23T12:43:46;29.90;96.00
50570;DHT22;36525;49.398;7.614;2022-07-23T12:46:15;29.80;95.60
50570;DHT22;36525;49.398;7.614;2022-07-23T12:48:53;29.70;96.00
50570;DHT22;36525;49.398;7.614;2022-07-23T12:51:24;29.70;96.40
50570;DHT22;36525;49.398;7.614;2022-07-23T12:53:57;29.60;95.90
50570;DHT22;36525;49.398;7.614;2022-07-23T12:56:29;29.40;96.70
50570;DHT22;36525;49.398;7.614;2022-07-23T12:59:04;29.20;95.80
50570;DHT22;36525;49.398;7.614;2022-07-23T13:01:40;28.90;96.00
50570;DHT22;36525;49.398;7.614;2022-07-23T13:04:19;28.60;96.70
50570;DHT22;36525;49.398;7.614;2022-07-23T13:06:55;28.50;96.70
50570;DHT22;36525;49.398;7.614;2022-07-23T13:09:30;28.60;97.10
50570;DHT22;36525;49.398;7.614;2022-07-23T13:12:07;28.80;97.30
50570;DHT22;36525;49.398;7.614;2022-07-23T13:14:37;29.20;96.90
50570;DHT22;36525;49.398;7.614;2022-07-23T13:17:05;29.70;96.60
50570;DHT22;36525;49.398;7.614;2022-07-23T13:19:33;30.30;96.40
50570;DHT22;36525;49.398;7.614;2022-07-23T13:22:00;31.00;95.10
50570;DHT22;36525;49.398;7.614;2022-07-23T13:24:34;32.00;94.50
50570;DHT22;36525;49.398;7.614;2022-07-23T13:27:04;32.80;93.40
50570;DHT22;36525;49.398;7.614;2022-07-23T13:29:33;32.80;93.50
50570;DHT22;36525;49.398;7.614;2022-07-23T13:32:02;33.20;92.10
50570;DHT22;36525;49.398;7.614;2022-07-23T13:34:41;33.10;92.10
50570;DHT22;36525;49.398;7.614;2022-07-23T13:37:08;33.50;91.70
50570;DHT22;36525;49.398;7.614;2022-07-23T13:39:35;33.30;91.50
50570;DHT22;36525;49.398;7.614;2022-07-23T13:42:04;32.20;91.40
50570;DHT22;36525;49.398;7.614;2022-07-23T13:44:34;31.30;92.10
50570;DHT22;36525;49.398;7.614;2022-07-23T13:47:02;30.70;92.60
50570;DHT22;36525;49.398;7.614;2022-07-23T13:49:30;30.40;92.80
50570;DHT22;36525;49.398;7.614;2022-07-23T13:51:57;30.90;92.50
50570;DHT22;36525;49.398;7.614;2022-07-23T13:54:25;31.50;93.40
50570;DHT22;36525;49.398;7.614;2022-07-23T13:56:54;32.10;92.10
50570;DHT22;36525;49.398;7.614;2022-07-23T13:59:23;33.50;91.30
50570;DHT22;36525;49.398;7.614;2022-07-23T14:01:52;34.60;90.90
50570;DHT22;36525;49.398;7.614;2022-07-23T14:04:40;35.40;89.00
50570;DHT22;36525;49.398;7.614;2022-07-23T14:07:08;35.20;86.80
50570;DHT22;36525;49.398;7.614;2022-07-23T14:09:36;35.30;87.40
50570;DHT22;36525;49.398;7.614;2022-07-23T14:12:04;35.90;87.10
50570;DHT22;36525;49.398;7.614;2022-07-23T14:14:32;36.00;83.70
50570;DHT22;36525;49.398;7.614;2022-07-23T14:17:03;36.00;83.70
50570;DHT22;36525;49.398;7.614;2022-07-23T14:19:30;36.40;83.20
50570;DHT22;36525;49.398;7.614;2022-07-23T14:21:59;36.10;82.20
50570;DHT22;36525;49.398;7.614;2022-07-23T14:24:26;34.80;82.40
50570;DHT22;36525;49.398;7.614;2022-07-23T14:27:00;34.40;84.00
50570;DHT22;36525;49.398;7.614;2022-07-23T14:29:29;34.80;84.60
50570;DHT22;36525;49.398;7.614;2022-07-23T14:31:57;35.20;83.30
50570;DHT22;36525;49.398;7.614;2022-07-23T14:34:25;34.70;83.50
50570;DHT22;36525;49.398;7.614;2022-07-23T14:36:54;34.20;82.70
50570;DHT22;36525;49.398;7.614;2022-07-23T14:39:21;33.10;84.30
50570;DHT22;36525;49.398;7.614;2022-07-23T14:41:48;32.20;85.70
50570;DHT22;36525;49.398;7.614;2022-07-23T14:44:15;31.90;87.20
50570;DHT22;36525;49.398;7.614;2022-07-23T14:46:42;32.80;85.60
50570;DHT22;36525;49.398;7.614;2022-07-23T14:49:10;34.00;85.60
50570;DHT22;36525;49.398;7.614;2022-07-23T14:51:37;35.00;82.10
50570;DHT22;36525;49.398;7.614;2022-07-23T14:54:05;34.90;80.80
50570;DHT22;36525;49.398;7.614;2022-07-23T14:56:32;34.90;80.60
50570;DHT22;36525;49.398;7.614;2022-07-23T14:59:01;35.10;79.20
50570;DHT22;36525;49.398;7.614;2022-07-23T15:01:30;35.70;80.90
50570;DHT22;36525;49.398;7.614;2022-07-23T15:04:00;34.80;80.10
50570;DHT22;36525;49.398;7.614;2022-07-23T15:09:20;32.20;81.70
50570;DHT22;36525;49.398;7.614;2022-07-23T15:11:47;31.20;84.00
50570;DHT22;36525;49.398;7.614;2022-07-23T15:14:14;30.70;85.40
50570;DHT22;36525;49.398;7.614;2022-07-23T15:16:53;31.50;86.30
50570;DHT22;36525;49.398;7.614;2022-07-23T15:19:20;33.00;83.80
50570;DHT22;36525;49.398;7.614;2022-07-23T15:21:47;34.50;82.00
50570;DHT22;36525;49.398;7.614;2022-07-23T15:24:15;35.10;80.70
50570;DHT22;36525;49.398;7.614;2022-07-23T15:26:42;34.20;80.30
50570;DHT22;36525;49.398;7.614;2022-07-23T15:29:09;33.30;80.90
50570;DHT22;36525;49.398;7.614;2022-07-23T15:31:35;33.30;81.60
50570;DHT22;36525;49.398;7.614;2022-07-23T15:34:02;34.10;81.20
50570;DHT22;36525;49.398;7.614;2022-07-23T15:36:33;34.90;79.90
50570;DHT22;36525;49.398;7.614;2022-07-23T15:39:02;35.80;77.80
50570;DHT22;36525;49.398;7.614;2022-07-23T15:41:29;36.30;76.70
50570;DHT22;36525;49.398;7.614;2022-07-23T15:43:56;36.20;73.90
50570;DHT22;36525;49.398;7.614;2022-07-23T15:46:25;36.10;73.50
50570;DHT22;36525;49.398;7.614;2022-07-23T15:48:53;36.20;74.00
50570;DHT22;36525;49.398;7.614;2022-07-23T15:51:21;36.60;72.60
50570;DHT22;36525;49.398;7.614;2022-07-23T15:53:48;36.30;74.00
50570;DHT22;36525;49.398;7.614;2022-07-23T15:56:15;35.60;76.90
50570;DHT22;36525;49.398;7.614;2022-07-23T15:58:43;35.30;78.60
50570;DHT22;36525;49.398;7.614;2022-07-23T16:01:10;35.70;78.90
50570;DHT22;36525;49.398;7.614;2022-07-23T16:03:39;36.70;79.50
50570;DHT22;36525;49.398;7.614;2022-07-23T16:06:06;37.20;77.00
50570;DHT22;36525;49.398;7.614;2022-07-23T16:08:43;37.30;73.10
50570;DHT22;36525;49.398;7.614;2022-07-23T16:11:11;37.00;73.40
50570;DHT22;36525;49.398;7.614;2022-07-23T16:13:40;37.00;73.40
50570;DHT22;36525;49.398;7.614;2022-07-23T16:16:07;37.70;71.30
50570;DHT22;36525;49.398;7.614;2022-07-23T16:18:35;37.90;70.80
50570;DHT22;36525;49.398;7.614;2022-07-23T16:21:03;38.30;69.80
50570;DHT22;36525;49.398;7.614;2022-07-23T16:23:37;38.20;68.50
50570;DHT22;36525;49.398;7.614;2022-07-23T16:26:04;37.90;68.50
50570;DHT22;36525;49.398;7.614;2022-07-23T16:28:31;37.90;68.60
50570;DHT22;36525;49.398;7.614;2022-07-23T16:30:58;36.50;69.90
50570;DHT22;36525;49.398;7.614;2022-07-23T16:33:26;36.40;70.40
50570;DHT22;36525;49.398;7.614;2022-07-23T16:35:54;36.30;69.30
50570;DHT22;36525;49.398;7.614;2022-07-23T16:38:21;36.50;70.30
50570;DHT22;36525;49.398;7.614;2022-07-23T16:40:49;36.70;72.00
50570;DHT22;36525;49.398;7.614;2022-07-23T16:43:16;36.70;68.80
50570;DHT22;36525;49.398;7.614;2022-07-23T16:45:46;37.30;68.40
50570;DHT22;36525;49.398;7.614;2022-07-23T16:48:13;38.20;69.60
50570;DHT22;36525;49.398;7.614;2022-07-23T16:50:40;38.60;67.00
50570;DHT22;36525;49.398;7.614;2022-07-23T16:53:07;38.90;67.30
50570;DHT22;36525;49.398;7.614;2022-07-23T16:55:34;38.30;65.00
50570;DHT22;36525;49.398;7.614;2022-07-23T16:58:01;36.90;66.00
50570;DHT22;36525;49.398;7.614;2022-07-23T17:00:28;36.20;66.80
50570;DHT22;36525;49.398;7.614;2022-07-23T17:02:55;35.20;67.50
50570;DHT22;36525;49.398;7.614;2022-07-23T17:05:22;34.70;68.60
50570;DHT22;36525;49.398;7.614;2022-07-23T17:07:50;34.60;67.90
50570;DHT22;36525;49.398;7.614;2022-07-23T17:10:20;34.10;68.60
50570;DHT22;36525;49.398;7.614;2022-07-23T17:12:48;33.80;67.90
50570;DHT22;36525;49.398;7.614;2022-07-23T17:15:20;33.40;68.20
50570;DHT22;36525;49.398;7.614;2022-07-23T17:17:47;32.80;68.80
50570;DHT22;36525;49.398;7.614;2022-07-23T17:20:14;32.40;70.70
50570;DHT22;36525;49.398;7.614;2022-07-23T17:22:41;31.90;71.20
50570;DHT22;36525;49.398;7.614;2022-07-23T17:25:09;31.30;72.30
50570;DHT22;36525;49.398;7.614;2022-07-23T17:27:44;30.80;72.30
50570;DHT22;36525;49.398;7.614;2022-07-23T17:30:13;30.50;72.10
50570;DHT22;36525;49.398;7.614;2022-07-23T17:32:42;30.60;72.20
50570;DHT22;36525;49.398;7.614;2022-07-23T17:35:09;31.10;71.50
50570;DHT22;36525;49.398;7.614;2022-07-23T17:37:36;32.30;70.90
50570;DHT22;36525;49.398;7.614;2022-07-23T17:40:04;33.40;70.60
50570;DHT22;36525;49.398;7.614;2022-07-23T17:42:31;33.20;70.00
50570;DHT22;36525;49.398;7.614;2022-07-23T17:44:59;32.40;70.60
50570;DHT22;36525;49.398;7.614;2022-07-23T17:47:35;31.60;71.50
50570;DHT22;36525;49.398;7.614;2022-07-23T17:50:03;30.90;72.30